sensor_id;sensor_type;location;lat;lon;timestamp;temperature;humidity
39925;DHT22;25592;49.986;11.618;2023-02-15T00:01:08;2.50;99.90
39925;DHT22;25592;49.986;11.618;2023-02-15T00:03:54;2.50;99.90
39925;DHT22;25592;49.986;11.618;2023-02-15T00:06:39;2.40;99.90
39925;DHT22;25592;49.986;11.618;2023-02-15T00:09:25;2.60;99.90
39925;DHT22;25592;49.986;11.618;2023-02-15T00:12:10;2.50;99.90
39925;DHT22;25592;49.986;11.618;2023-02-15T00:14:56;2.40;99.90
39925;DHT22;25592;49.986;11.618;2023-02-15T00:17:41;2.40;99.90
39925;DHT22;25592;49.986;11.618;2023-02-15T00:20:26;2.40;99.90
39925;DHT22;25592;49.986;11.618;2023-02-15T00:23:12;2.30;99.90
39925;DHT22;25592;49.986;11.618;2023-02-15T00:26:11;2.40;99.90
39925;DHT22;25592;49.986;11.618;2023-02-15T00:28:56;2.50;99.90
39925;DHT22;25592;49.986;11.618;2023-02-15T00:31:44;2.60;99.90
39925;DHT22;25592;49.986;11.618;2023-02-15T00:34:29;2.50;99.90
39925;DHT22;25592;49.986;11.618;2023-02-15T00:37:14;2.30;99.90
39925;DHT22;25592;49.986;11.618;2023-02-15T00:40:00;2.30;99.90
39925;DHT22;25592;49.986;11.618;2023-02-15T00:42:45;2.40;99.90
39925;DHT22;25592;49.986;11.618;2023-02-15T00:45:31;2.20;99.90
39925;DHT22;25592;49.986;11.618;2023-02-15T00:48:16;2.20;99.90
39925;DHT22;25592;49.986;11.618;2023-02-15T00:51:02;2.20;99.90
39925;DHT22;25592;49.986;11.618;2023-02-15T00:53:47;2.20;99.90
39925;DHT22;25592;49.986;11.618;2023-02-15T00:56:32;2.30;99.90
39925;DHT22;25592;49.986;11.618;2023-02-15T00:59:18;2.30;99.90
39925;DHT22;25592;49.986;11.618;2023-02-15T01:02:03;2.40;99.90
39925;DHT22;25592;49.986;11.618;2023-02-15T01:04:49;2.30;99.90
39925;DHT22;25592;49.986;11.618;2023-02-15T01:07:34;2.10;99.90
39925;DHT22;25592;49.986;11.618;2023-02-15T01:10:19;2.10;99.90
39925;DHT22;25592;49.986;11.618;2023-02-15T01:13:05;2.20;99.90
39925;DHT22;25592;49.986;11.618;2023-02-15T01:15:54;2.30;99.90
39925;DHT22;25592;49.986;11.618;2023-02-15T01:18:40;2.30;99.90
39925;DHT22;25592;49.986;11.618;2023-02-15T01:21:25;2.20;99.90
39925;DHT22;25592;49.986;11.618;2023-02-15T01:24:14;2.20;99.90
39925;DHT22;25592;49.986;11.618;2023-02-15T01:26:59;2.10;99.90
39925;DHT22;25592;49.986;11.618;2023-02-15T01:29:45;2.20;99.90
39925;DHT22;25592;49.986;11.618;2023-02-15T01:32:30;2.10;99.90
39925;DHT22;25592;49.986;11.618;2023-02-15T01:35:16;2.10;99.90
39925;DHT22;25592;49.986;11.618;2023-02-15T01:38:01;2.00;99.90
39925;DHT22;25592;49.986;11.618;2023-02-15T01:40:47;1.90;99.90
39925;DHT22;25592;49.986;11.618;2023-02-15T01:43:42;1.90;99.90
39925;DHT22;25592;49.986;11.618;2023-02-15T01:46:38;2.10;99.90
39925;DHT22;25592;49.986;11.618;2023-02-15T01:49:26;2.20;99.90
39925;DHT22;25592;49.986;11.618;2023-02-15T01:52:15;2.30;99.90
39925;DHT22;25592;49.986;11.618;2023-02-15T01:55:03;2.30;99.90
39925;DHT22;25592;49.986;11.618;2023-02-15T01:57:52;2.30;99.90
39925;DHT22;25592;49.986;11.618;2023-02-15T02:00:38;2.40;99.90
39925;DHT22;25592;49.986;11.618;2023-02-15T02:03:49;2.40;99.90
39925;DHT22;25592;49.986;11.618;2023-02-15T02:06:36;2.50;99.90
39925;DHT22;25592;49.986;11.618;2023-02-15T02:09:22;2.50;99.90
39925;DHT22;25592;49.986;11.618;2023-02-15T02:12:08;2.50;99.90
39925;DHT22;25592;49.986;11.618;2023-02-15T02:14:54;2.40;99.90
39925;DHT22;25592;49.986;11.618;2023-02-15T02:17:49;2.50;99.90
39925;DHT22;25592;49.986;11.618;2023-02-15T02:21:02;2.30;99.90
39925;DHT22;25592;49.986;11.618;2023-02-15T02:24:23;2.30;99.90
39925;DHT22;25592;49.986;11.618;2023-02-15T02:27:37;2.40;99.90
39925;DHT22;25592;49.986;11.618;2023-02-15T02:33:54;2.20;99.90
39925;DHT22;25592;49.986;11.618;2023-02-15T02:43:23;2.40;99.90
39925;DHT22;25592;49.986;11.618;2023-02-15T02:46:26;2.30;99.90
39925;DHT22;25592;49.986;11.618;2023-02-15T02:49:13;2.20;99.90
39925;DHT22;25592;49.986;11.618;2023-02-15T02:52:03;2.20;99.90
39925;DHT22;25592;49.986;11.618;2023-02-15T02:54:48;2.30;99.90
39925;DHT22;25592;49.986;11.618;2023-02-15T02:57:37;2.40;99.90
39925;DHT22;25592;49.986;11.618;2023-02-15T03:00:28;2.30;99.90
39925;DHT22;25592;49.986;11.618;2023-02-15T03:03:20;2.40;99.90
39925;DHT22;25592;49.986;11.618;2023-02-15T03:06:11;2.30;99.90
39925;DHT22;25592;49.986;11.618;2023-02-15T03:09:03;2.30;99.90
39925;DHT22;25592;49.986;11.618;2023-02-15T03:11:50;2.30;99.90
39925;DHT22;25592;49.986;11.618;2023-02-15T03:14:35;2.40;99.90
39925;DHT22;25592;49.986;11.618;2023-02-15T03:17:23;2.30;99.90
39925;DHT22;25592;49.986;11.618;2023-02-15T03:20:16;2.20;99.90
39925;DHT22;25592;49.986;11.618;2023-02-15T03:23:13;2.20;99.90
39925;DHT22;25592;49.986;11.618;2023-02-15T03:26:02;2.30;99.90
39925;DHT22;25592;49.986;11.618;2023-02-15T03:28:50;2.40;99.90
39925;DHT22;25592;49.986;11.618;2023-02-15T03:31:41;2.30;99.90
39925;DHT22;25592;49.986;11.618;2023-02-15T03:34:28;2.30;99.90
39925;DHT22;25592;49.986;11.618;2023-02-15T03:40:51;2.10;99.90
39925;DHT22;25592;49.986;11.618;2023-02-15T03:44:00;2.30;99.90
39925;DHT22;25592;49.986;11.618;2023-02-15T03:47:07;2.20;99.90
39925;DHT22;25592;49.986;11.618;2023-02-15T03:50:08;2.20;99.90
39925;DHT22;25592;49.986;11.618;2023-02-15T03:53:18;2.20;99.90
39925;DHT22;25592;49.986;11.618;2023-02-15T03:56:06;2.20;99.90
39925;DHT22;25592;49.986;11.618;2023-02-15T03:58:51;2.20;99.90
39925;DHT22;25592;49.986;11.618;2023-02-15T04:02:08;2.30;99.90
39925;DHT22;25592;49.986;11.618;2023-02-15T04:04:57;2.30;99.90
39925;DHT22;25592;49.986;11.618;2023-02-15T04:07:42;2.30;99.90
39925;DHT22;25592;49.986;11.618;2023-02-15T04:10:28;2.40;99.90
39925;DHT22;25592;49.986;11.618;2023-02-15T04:13:32;2.40;99.90
39925;DHT22;25592;49.986;11.618;2023-02-15T04:16:17;2.40;99.90
39925;DHT22;25592;49.986;11.618;2023-02-15T04:19:03;2.40;99.90
39925;DHT22;25592;49.986;11.618;2023-02-15T04:22:07;2.30;99.90
39925;DHT22;25592;49.986;11.618;2023-02-15T04:25:11;2.20;99.90
39925;DHT22;25592;49.986;11.618;2023-02-15T04:27:58;1.90;99.90
39925;DHT22;25592;49.986;11.618;2023-02-15T04:30:44;1.70;99.90
39925;DHT22;25592;49.986;11.618;2023-02-15T04:33:29;1.70;99.90
39925;DHT22;25592;49.986;11.618;2023-02-15T04:36:14;1.70;99.90
39925;DHT22;25592;49.986;11.618;2023-02-15T04:39:00;1.60;99.90
39925;DHT22;25592;49.986;11.618;2023-02-15T04:41:46;1.60;99.90
39925;DHT22;25592;49.986;11.618;2023-02-15T04:44:32;1.70;99.90
39925;DHT22;25592;49.986;11.618;2023-02-15T04:47:17;1.60;99.90
39925;DHT22;25592;49.986;11.618;2023-02-15T04:50:03;1.30;99.90
39925;DHT22;25592;49.986;11.618;2023-02-15T04:52:49;1.30;99.90
39925;DHT22;25592;49.986;11.618;2023-02-15T04:55:34;1.20;99.90
39925;DHT22;25592;49.986;11.618;2023-02-15T04:58:20;1.30;99.90
39925;DHT22;25592;49.986;11.618;2023-02-15T05:01:05;1.40;99.90
39925;DHT22;25592;49.986;11.618;2023-02-15T05:03:50;1.50;99.90
39925;DHT22;25592;49.986;11.618;2023-02-15T05:06:36;1.70;99.90
39925;DHT22;25592;49.986;11.618;2023-02-15T05:09:21;1.70;99.90
39925;DHT22;25592;49.986;11.618;2023-02-15T05:12:07;1.70;99.90
39925;DHT22;25592;49.986;11.618;2023-02-15T05:14:52;1.50;99.90
39925;DHT22;25592;49.986;11.618;2023-02-15T05:17:38;1.40;99.90
39925;DHT22;25592;49.986;11.618;2023-02-15T05:20:23;1.30;99.90
39925;DHT22;25592;49.986;11.618;2023-02-15T05:23:08;1.30;99.90
39925;DHT22;25592;49.986;11.618;2023-02-15T05:25:54;1.30;99.90
39925;DHT22;25592;49.986;11.618;2023-02-15T05:28:58;1.30;99.90
39925;DHT22;25592;49.986;11.618;2023-02-15T05:31:43;1.10;99.90
39925;DHT22;25592;49.986;11.618;2023-02-15T05:34:32;1.00;99.90
39925;DHT22;25592;49.986;11.618;2023-02-15T05:37:17;0.80;99.90
39925;DHT22;25592;49.986;11.618;2023-02-15T05:40:03;0.80;99.90
39925;DHT22;25592;49.986;11.618;2023-02-15T05:42:48;0.90;99.90
39925;DHT22;25592;49.986;11.618;2023-02-15T05:45:34;1.00;99.90
39925;DHT22;25592;49.986;11.618;2023-02-15T05:48:22;0.90;99.90
39925;DHT22;25592;49.986;11.618;2023-02-15T05:51:09;1.00;99.90
39925;DHT22;25592;49.986;11.618;2023-02-15T05:53:55;0.80;99.90
39925;DHT22;25592;49.986;11.618;2023-02-15T05:56:40;0.80;99.90
39925;DHT22;25592;49.986;11.618;2023-02-15T05:59:26;0.70;99.90
39925;DHT22;25592;49.986;11.618;2023-02-15T06:02:11;0.70;99.90
39925;DHT22;25592;49.986;11.618;2023-02-15T06:04:58;0.70;99.90
39925;DHT22;25592;49.986;11.618;2023-02-15T06:07:43;0.70;99.90
39925;DHT22;25592;49.986;11.618;2023-02-15T06:10:29;0.70;99.90
39925;DHT22;25592;49.986;11.618;2023-02-15T06:13:15;0.70;99.90
39925;DHT22;25592;49.986;11.618;2023-02-15T06:16:01;0.70;99.90
39925;DHT22;25592;49.986;11.618;2023-02-15T06:18:47;0.70;99.90
39925;DHT22;25592;49.986;11.618;2023-02-15T06:21:32;0.80;99.90
39925;DHT22;25592;49.986;11.618;2023-02-15T06:24:18;1.00;99.90
39925;DHT22;25592;49.986;11.618;2023-02-15T06:27:03;1.20;99.90
39925;DHT22;25592;49.986;11.618;2023-02-15T06:29:48;1.30;99.90
39925;DHT22;25592;49.986;11.618;2023-02-15T06:32:34;1.00;99.90
39925;DHT22;25592;49.986;11.618;2023-02-15T06:35:20;0.60;99.90
39925;DHT22;25592;49.986;11.618;2023-02-15T06:38:06;0.50;99.90
39925;DHT22;25592;49.986;11.618;2023-02-15T06:40:51;0.50;99.90
39925;DHT22;25592;49.986;11.618;2023-02-15T06:43:37;0.60;99.90
39925;DHT22;25592;49.986;11.618;2023-02-15T06:46:25;0.40;99.90
39925;DHT22;25592;49.986;11.618;2023-02-15T06:49:10;0.50;99.90
39925;DHT22;25592;49.986;11.618;2023-02-15T06:51:55;0.60;99.90
39925;DHT22;25592;49.986;11.618;2023-02-15T06:54:41;0.90;99.90
39925;DHT22;25592;49.986;11.618;2023-02-15T06:57:26;0.90;99.90
39925;DHT22;25592;49.986;11.618;2023-02-15T07:00:12;0.90;99.90
39925;DHT22;25592;49.986;11.618;2023-02-15T07:02:58;1.00;99.90
39925;DHT22;25592;49.986;11.618;2023-02-15T07:05:44;0.90;99.90
39925;DHT22;25592;49.986;11.618;2023-02-15T07:08:30;0.90;99.90
39925;DHT22;25592;49.986;11.618;2023-02-15T07:11:15;1.00;99.90
39925;DHT22;25592;49.986;11.618;2023-02-15T07:14:19;1.00;99.90
39925;DHT22;25592;49.986;11.618;2023-02-15T07:17:05;1.20;99.90
39925;DHT22;25592;49.986;11.618;2023-02-15T07:20:05;1.20;99.90
39925;DHT22;25592;49.986;11.618;2023-02-15T07:22:51;1.30;99.90
39925;DHT22;25592;49.986;11.618;2023-02-15T07:25:36;1.20;99.90
39925;DHT22;25592;49.986;11.618;2023-02-15T07:28:21;1.20;99.90
39925;DHT22;25592;49.986;11.618;2023-02-15T07:31:07;1.30;99.90
39925;DHT22;25592;49.986;11.618;2023-02-15T07:33:52;1.40;99.90
39925;DHT22;25592;49.986;11.618;2023-02-15T07:36:37;1.30;99.90
39925;DHT22;25592;49.986;11.618;2023-02-15T07:39:23;1.20;99.90
39925;DHT22;25592;49.986;11.618;2023-02-15T07:42:08;1.30;99.90
39925;DHT22;25592;49.986;11.618;2023-02-15T07:44:54;1.30;99.90
39925;DHT22;25592;49.986;11.618;2023-02-15T07:47:39;1.30;99.90
39925;DHT22;25592;49.986;11.618;2023-02-15T07:50:24;1.30;99.90
39925;DHT22;25592;49.986;11.618;2023-02-15T07:53:10;1.30;99.90
39925;DHT22;25592;49.986;11.618;2023-02-15T07:55:59;1.40;99.90
39925;DHT22;25592;49.986;11.618;2023-02-15T07:58:45;1.30;99.90
39925;DHT22;25592;49.986;11.618;2023-02-15T08:01:38;1.30;99.90
39925;DHT22;25592;49.986;11.618;2023-02-15T08:04:24;1.40;99.90
39925;DHT22;25592;49.986;11.618;2023-02-15T08:07:09;1.60;99.90
39925;DHT22;25592;49.986;11.618;2023-02-15T08:09:55;1.60;99.90
39925;DHT22;25592;49.986;11.618;2023-02-15T08:12:40;1.60;99.90
39925;DHT22;25592;49.986;11.618;2023-02-15T08:15:26;1.30;99.90
39925;DHT22;25592;49.986;11.618;2023-02-15T08:18:11;1.30;99.90
39925;DHT22;25592;49.986;11.618;2023-02-15T08:20:56;1.20;99.90
39925;DHT22;25592;49.986;11.618;2023-02-15T08:23:42;1.40;99.90
39925;DHT22;25592;49.986;11.618;2023-02-15T08:26:28;1.50;99.90
39925;DHT22;25592;49.986;11.618;2023-02-15T08:29:15;1.50;99.90
39925;DHT22;25592;49.986;11.618;2023-02-15T08:32:04;1.50;99.90
39925;DHT22;25592;49.986;11.618;2023-02-15T08:34:50;1.30;99.90
39925;DHT22;25592;49.986;11.618;2023-02-15T08:37:35;1.50;99.90
39925;DHT22;25592;49.986;11.618;2023-02-15T08:40:21;1.50;99.90
39925;DHT22;25592;49.986;11.618;2023-02-15T08:43:06;1.50;99.90
39925;DHT22;25592;49.986;11.618;2023-02-15T08:45:52;1.60;99.90
39925;DHT22;25592;49.986;11.618;2023-02-15T08:48:38;1.70;99.90
39925;DHT22;25592;49.986;11.618;2023-02-15T08:51:25;1.80;99.90
39925;DHT22;25592;49.986;11.618;2023-02-15T08:54:15;1.80;99.90
39925;DHT22;25592;49.986;11.618;2023-02-15T08:57:00;1.80;99.90
39925;DHT22;25592;49.986;11.618;2023-02-15T08:59:46;1.80;99.90
39925;DHT22;25592;49.986;11.618;2023-02-15T09:02:31;1.80;99.90
39925;DHT22;25592;49.986;11.618;2023-02-15T09:05:16;1.70;99.90
39925;DHT22;25592;49.986;11.618;2023-02-15T09:08:02;1.60;99.90
39925;DHT22;25592;49.986;11.618;2023-02-15T09:10:47;1.60;99.90
39925;DHT22;25592;49.986;11.618;2023-02-15T09:13:32;1.60;99.90
39925;DHT22;25592;49.986;11.618;2023-02-15T09:16:19;1.60;99.90
39925;DHT22;25592;49.986;11.618;2023-02-15T09:19:06;1.50;99.90
39925;DHT22;25592;49.986;11.618;2023-02-15T09:21:52;1.60;99.90
39925;DHT22;25592;49.986;11.618;2023-02-15T09:24:37;1.60;99.90
39925;DHT22;25592;49.986;11.618;2023-02-15T09:27:23;1.60;99.90
39925;DHT22;25592;49.986;11.618;2023-02-15T09:30:08;1.50;99.90
39925;DHT22;25592;49.986;11.618;2023-02-15T09:32:57;1.50;99.90
39925;DHT22;25592;49.986;11.618;2023-02-15T09:35:42;1.60;99.90
39925;DHT22;25592;49.986;11.618;2023-02-15T09:38:27;1.60;99.90
39925;DHT22;25592;49.986;11.618;2023-02-15T09:41:26;1.60;99.90
39925;DHT22;25592;49.986;11.618;2023-02-15T09:59:34;1.60;99.90
39925;DHT22;25592;49.986;11.618;2023-02-15T10:02:40;1.80;99.90
39925;DHT22;25592;49.986;11.618;2023-02-15T10:05:44;1.70;99.90
39925;DHT22;25592;49.986;11.618;2023-02-15T10:21:19;1.80;99.90
39925;DHT22;25592;49.986;11.618;2023-02-15T10:27:26;1.90;99.90
39925;DHT22;25592;49.986;11.618;2023-02-15T10:30:29;1.80;99.90
39925;DHT22;25592;49.986;11.618;2023-02-15T10:33:39;2.00;99.90
39925;DHT22;25592;49.986;11.618;2023-02-15T10:42:48;1.90;99.90
39925;DHT22;25592;49.986;11.618;2023-02-15T10:45:57;1.90;99.90
39925;DHT22;25592;49.986;11.618;2023-02-15T10:48:57;1.90;99.90
39925;DHT22;25592;49.986;11.618;2023-02-15T10:52:17;1.90;99.90
39925;DHT22;25592;49.986;11.618;2023-02-15T10:55:34;2.10;99.90
39925;DHT22;25592;49.986;11.618;2023-02-15T10:59:06;2.20;99.90
39925;DHT22;25592;49.986;11.618;2023-02-15T11:02:19;2.10;99.90
39925;DHT22;25592;49.986;11.618;2023-02-15T11:08:07;2.30;99.90
39925;DHT22;25592;49.986;11.618;2023-02-15T11:10:57;2.50;99.90
39925;DHT22;25592;49.986;11.618;2023-02-15T11:13:47;2.70;99.90
39925;DHT22;25592;49.986;11.618;2023-02-15T11:16:36;2.70;99.90
39925;DHT22;25592;49.986;11.618;2023-02-15T11:19:32;2.70;99.90
39925;DHT22;25592;49.986;11.618;2023-02-15T11:22:19;2.90;99.90
39925;DHT22;25592;49.986;11.618;2023-02-15T11:25:20;3.00;99.90
39925;DHT22;25592;49.986;11.618;2023-02-15T11:28:16;3.10;99.90
39925;DHT22;25592;49.986;11.618;2023-02-15T11:31:16;3.20;99.90
39925;DHT22;25592;49.986;11.618;2023-02-15T11:34:10;3.30;99.90
39925;DHT22;25592;49.986;11.618;2023-02-15T11:37:01;3.50;99.90
39925;DHT22;25592;49.986;11.618;2023-02-15T11:39:51;3.70;99.90
39925;DHT22;25592;49.986;11.618;2023-02-15T11:42:40;3.90;99.90
39925;DHT22;25592;49.986;11.618;2023-02-15T11:45:32;3.90;99.90
39925;DHT22;25592;49.986;11.618;2023-02-15T11:48:17;3.70;99.90
39925;DHT22;25592;49.986;11.618;2023-02-15T11:51:03;3.70;99.90
39925;DHT22;25592;49.986;11.618;2023-02-15T11:53:49;3.70;99.90
39925;DHT22;25592;49.986;11.618;2023-02-15T11:56:34;3.80;99.90
39925;DHT22;25592;49.986;11.618;2023-02-15T11:59:27;3.70;99.90
39925;DHT22;25592;49.986;11.618;2023-02-15T12:02:20;3.90;99.90
39925;DHT22;25592;49.986;11.618;2023-02-15T12:05:11;4.00;99.90
39925;DHT22;25592;49.986;11.618;2023-02-15T12:08:02;4.20;99.90
39925;DHT22;25592;49.986;11.618;2023-02-15T12:11:07;4.40;99.90
39925;DHT22;25592;49.986;11.618;2023-02-15T12:13:59;4.40;99.90
39925;DHT22;25592;49.986;11.618;2023-02-15T12:16:50;4.50;99.90
39925;DHT22;25592;49.986;11.618;2023-02-15T12:19:38;4.40;99.90
39925;DHT22;25592;49.986;11.618;2023-02-15T12:22:31;4.60;99.90
39925;DHT22;25592;49.986;11.618;2023-02-15T12:25:33;4.80;99.90
39925;DHT22;25592;49.986;11.618;2023-02-15T12:28:30;4.80;99.90
39925;DHT22;25592;49.986;11.618;2023-02-15T12:31:23;4.90;99.90
39925;DHT22;25592;49.986;11.618;2023-02-15T12:34:32;5.00;99.90
39925;DHT22;25592;49.986;11.618;2023-02-15T12:37:21;5.00;99.90
39925;DHT22;25592;49.986;11.618;2023-02-15T12:40:26;5.10;99.90
39925;DHT22;25592;49.986;11.618;2023-02-15T12:43:44;5.20;99.90
39925;DHT22;25592;49.986;11.618;2023-02-15T12:46:30;5.30;99.90
39925;DHT22;25592;49.986;11.618;2023-02-15T12:49:22;5.40;99.90
39925;DHT22;25592;49.986;11.618;2023-02-15T12:55:20;5.40;99.90
39925;DHT22;25592;49.986;11.618;2023-02-15T13:01:12;5.70;99.90
39925;DHT22;25592;49.986;11.618;2023-02-15T13:04:02;5.60;99.90
39925;DHT22;25592;49.986;11.618;2023-02-15T13:06:50;5.50;99.90
39925;DHT22;25592;49.986;11.618;2023-02-15T13:09:39;5.50;99.90
39925;DHT22;25592;49.986;11.618;2023-02-15T13:12:27;5.50;99.90
39925;DHT22;25592;49.986;11.618;2023-02-15T13:15:25;5.30;99.90
39925;DHT22;25592;49.986;11.618;2023-02-15T13:18:16;5.40;99.90
39925;DHT22;25592;49.986;11.618;2023-02-15T13:21:18;5.50;99.90
39925;DHT22;25592;49.986;11.618;2023-02-15T13:24:06;5.70;99.90
39925;DHT22;25592;49.986;11.618;2023-02-15T13:26:57;5.60;99.90
39925;DHT22;25592;49.986;11.618;2023-02-15T13:30:02;5.60;99.90
39925;DHT22;25592;49.986;11.618;2023-02-15T13:32:51;5.80;99.90
39925;DHT22;25592;49.986;11.618;2023-02-15T13:35:44;5.90;99.90
39925;DHT22;25592;49.986;11.618;2023-02-15T13:38:52;6.20;99.90
39925;DHT22;25592;49.986;11.618;2023-02-15T13:47:51;6.80;99.90
39925;DHT22;25592;49.986;11.618;2023-02-15T13:51:05;7.00;99.90
39925;DHT22;25592;49.986;11.618;2023-02-15T13:58:05;6.70;99.90
39925;DHT22;25592;49.986;11.618;2023-02-15T14:00:49;6.60;99.90
39925;DHT22;25592;49.986;11.618;2023-02-15T14:19:56;5.80;99.90
39925;DHT22;25592;49.986;11.618;2023-02-15T14:22:46;5.90;99.90
39925;DHT22;25592;49.986;11.618;2023-02-15T14:25:42;5.70;99.90
39925;DHT22;25592;49.986;11.618;2023-02-15T14:28:45;5.70;99.90
39925;DHT22;25592;49.986;11.618;2023-02-15T14:31:38;5.30;99.90
39925;DHT22;25592;49.986;11.618;2023-02-15T14:34:30;5.20;99.90
39925;DHT22;25592;49.986;11.618;2023-02-15T14:37:22;5.40;99.90
39925;DHT22;25592;49.986;11.618;2023-02-15T14:44:01;5.90;99.90
39925;DHT22;25592;49.986;11.618;2023-02-15T14:49:40;6.20;99.90
39925;DHT22;25592;49.986;11.618;2023-02-15T14:52:25;6.50;99.90
39925;DHT22;25592;49.986;11.618;2023-02-15T14:55:37;6.70;99.90
39925;DHT22;25592;49.986;11.618;2023-02-15T14:58:22;6.70;99.90
39925;DHT22;25592;49.986;11.618;2023-02-15T15:01:09;6.60;99.90
39925;DHT22;25592;49.986;11.618;2023-02-15T15:03:58;6.90;99.90
39925;DHT22;25592;49.986;11.618;2023-02-15T15:06:59;7.20;99.90
39925;DHT22;25592;49.986;11.618;2023-02-15T15:09:48;7.40;99.90
39925;DHT22;25592;49.986;11.618;2023-02-15T15:22:38;7.10;99.90
39925;DHT22;25592;49.986;11.618;2023-02-15T15:31:24;6.80;99.90
39925;DHT22;25592;49.986;11.618;2023-02-15T15:41:17;6.00;99.90
39925;DHT22;25592;49.986;11.618;2023-02-15T15:44:11;5.80;99.90
39925;DHT22;25592;49.986;11.618;2023-02-15T15:50:19;5.50;99.90
39925;DHT22;25592;49.986;11.618;2023-02-15T15:53:05;5.70;99.90
39925;DHT22;25592;49.986;11.618;2023-02-15T15:55:57;5.40;99.90
39925;DHT22;25592;49.986;11.618;2023-02-15T15:58:50;5.30;99.90
39925;DHT22;25592;49.986;11.618;2023-02-15T16:01:43;5.30;99.90
39925;DHT22;25592;49.986;11.618;2023-02-15T16:04:31;5.20;99.90
39925;DHT22;25592;49.986;11.618;2023-02-15T16:10:07;5.10;99.90
39925;DHT22;25592;49.986;11.618;2023-02-15T16:13:01;5.10;99.90
39925;DHT22;25592;49.986;11.618;2023-02-15T16:15:50;5.00;99.90
39925;DHT22;25592;49.986;11.618;2023-02-15T16:18:38;5.10;99.90
39925;DHT22;25592;49.986;11.618;2023-02-15T16:21:33;6.20;99.90
39925;DHT22;25592;49.986;11.618;2023-02-15T16:27:40;6.70;99.90
39925;DHT22;25592;49.986;11.618;2023-02-15T16:30:31;6.10;99.90
39925;DHT22;25592;49.986;11.618;2023-02-15T16:33:17;5.90;99.90
39925;DHT22;25592;49.986;11.618;2023-02-15T16:36:02;5.40;99.90
39925;DHT22;25592;49.986;11.618;2023-02-15T16:41:37;4.60;99.90
39925;DHT22;25592;49.986;11.618;2023-02-15T16:44:23;4.60;99.90
39925;DHT22;25592;49.986;11.618;2023-02-15T16:47:24;4.40;99.90
39925;DHT22;25592;49.986;11.618;2023-02-15T16:50:21;4.50;99.90
39925;DHT22;25592;49.986;11.618;2023-02-15T16:53:16;4.50;99.90
39925;DHT22;25592;49.986;11.618;2023-02-15T16:56:04;4.60;99.90
39925;DHT22;25592;49.986;11.618;2023-02-15T16:58:51;4.40;99.90
39925;DHT22;25592;49.986;11.618;2023-02-15T17:01:38;4.50;99.90
39925;DHT22;25592;49.986;11.618;2023-02-15T17:04:28;4.40;99.90
39925;DHT22;25592;49.986;11.618;2023-02-15T17:07:16;4.20;99.90
39925;DHT22;25592;49.986;11.618;2023-02-15T17:10:02;4.10;99.90
39925;DHT22;25592;49.986;11.618;2023-02-15T17:12:53;3.90;99.90
39925;DHT22;25592;49.986;11.618;2023-02-15T17:18:46;3.60;99.90
39925;DHT22;25592;49.986;11.618;2023-02-15T17:21:35;3.50;99.90
39925;DHT22;25592;49.986;11.618;2023-02-15T17:24:39;3.60;99.90
39925;DHT22;25592;49.986;11.618;2023-02-15T17:27:27;3.60;99.90
39925;DHT22;25592;49.986;11.618;2023-02-15T17:30:17;3.50;99.90
39925;DHT22;25592;49.986;11.618;2023-02-15T17:36:21;3.40;99.90
39925;DHT22;25592;49.986;11.618;2023-02-15T17:39:19;3.40;99.90
39925;DHT22;25592;49.986;11.618;2023-02-15T17:42:05;3.50;99.90
39925;DHT22;25592;49.986;11.618;2023-02-15T17:44:50;3.60;99.90
39925;DHT22;25592;49.986;11.618;2023-02-15T17:47:36;3.60;99.90
39925;DHT22;25592;49.986;11.618;2023-02-15T17:50:24;3.60;99.90
39925;DHT22;25592;49.986;11.618;2023-02-15T17:53:10;3.80;99.90
39925;DHT22;25592;49.986;11.618;2023-02-15T17:55:56;3.70;99.90
39925;DHT22;25592;49.986;11.618;2023-02-15T17:58:41;3.50;99.90
39925;DHT22;25592;49.986;11.618;2023-02-15T18:01:26;3.50;99.90
39925;DHT22;25592;49.986;11.618;2023-02-15T18:04:32;3.50;99.90
39925;DHT22;25592;49.986;11.618;2023-02-15T18:07:36;3.60;99.90
39925;DHT22;25592;49.986;11.618;2023-02-15T18:10:40;3.60;99.90
39925;DHT22;25592;49.986;11.618;2023-02-15T18:13:44;3.30;99.90
39925;DHT22;25592;49.986;11.618;2023-02-15T18:16:35;3.30;99.90
39925;DHT22;25592;49.986;11.618;2023-02-15T18:19:23;3.30;99.90
39925;DHT22;25592;49.986;11.618;2023-02-15T18:22:14;3.30;99.90
39925;DHT22;25592;49.986;11.618;2023-02-15T18:25:00;3.00;99.90
39925;DHT22;25592;49.986;11.618;2023-02-15T18:27:46;3.10;99.90
39925;DHT22;25592;49.986;11.618;2023-02-15T18:30:31;3.20;99.90
39925;DHT22;25592;49.986;11.618;2023-02-15T18:36:26;3.30;99.90
39925;DHT22;25592;49.986;11.618;2023-02-15T18:39:31;3.10;99.90
39925;DHT22;25592;49.986;11.618;2023-02-15T18:45:20;3.20;99.90
39925;DHT22;25592;49.986;11.618;2023-02-15T18:48:06;3.10;99.90
39925;DHT22;25592;49.986;11.618;2023-02-15T18:50:53;3.00;99.90
39925;DHT22;25592;49.986;11.618;2023-02-15T18:53:39;2.90;99.90
39925;DHT22;25592;49.986;11.618;2023-02-15T18:56:24;2.90;99.90
39925;DHT22;25592;49.986;11.618;2023-02-15T18:59:14;2.80;99.90
39925;DHT22;25592;49.986;11.618;2023-02-15T19:02:02;2.90;99.90
39925;DHT22;25592;49.986;11.618;2023-02-15T19:04:47;3.00;99.90
39925;DHT22;25592;49.986;11.618;2023-02-15T19:07:34;3.20;99.90
39925;DHT22;25592;49.986;11.618;2023-02-15T19:10:25;3.30;99.90
39925;DHT22;25592;49.986;11.618;2023-02-15T19:13:12;3.40;99.90
39925;DHT22;25592;49.986;11.618;2023-02-15T19:15:57;3.50;99.90
39925;DHT22;25592;49.986;11.618;2023-02-15T19:18:44;3.30;99.90
39925;DHT22;25592;49.986;11.618;2023-02-15T19:21:30;3.40;99.90
39925;DHT22;25592;49.986;11.618;2023-02-15T19:24:21;3.50;99.90
39925;DHT22;25592;49.986;11.618;2023-02-15T19:27:22;3.30;99.90
39925;DHT22;25592;49.986;11.618;2023-02-15T19:30:14;3.20;99.90
39925;DHT22;25592;49.986;11.618;2023-02-15T19:33:01;2.90;99.90
39925;DHT22;25592;49.986;11.618;2023-02-15T19:35:51;2.90;99.90
39925;DHT22;25592;49.986;11.618;2023-02-15T19:38:37;2.60;99.90
39925;DHT22;25592;49.986;11.618;2023-02-15T19:41:31;2.60;99.90
39925;DHT22;25592;49.986;11.618;2023-02-15T19:44:18;2.50;99.90
39925;DHT22;25592;49.986;11.618;2023-02-15T19:47:04;2.40;99.90
39925;DHT22;25592;49.986;11.618;2023-02-15T19:49:53;2.40;99.90
39925;DHT22;25592;49.986;11.618;2023-02-15T19:52:44;2.40;99.90
39925;DHT22;25592;49.986;11.618;2023-02-15T19:55:34;2.20;99.90
39925;DHT22;25592;49.986;11.618;2023-02-15T19:58:20;2.30;99.90
39925;DHT22;25592;49.986;11.618;2023-02-15T20:01:06;2.40;99.90
39925;DHT22;25592;49.986;11.618;2023-02-15T20:03:51;2.50;99.90
39925;DHT22;25592;49.986;11.618;2023-02-15T20:06:37;2.60;99.90
39925;DHT22;25592;49.986;11.618;2023-02-15T20:09:25;2.50;99.90
39925;DHT22;25592;49.986;11.618;2023-02-15T20:12:24;2.30;99.90
39925;DHT22;25592;49.986;11.618;2023-02-15T20:15:22;2.20;99.90